Time;durP1;ratioP1;P1;durP2;ratioP2;P2;SDS_P1;SDS_P2;PMS_P1;PMS_P2;Temp;Humidity;BMP_temperature;BMP_pressure;BME280_temperature;BME280_humidity;BME280_pressure;Samples;Min_cycle;Max_cycle;Signal;HPM_P1;HPM_P2
2023/10/30 00:00:55;;;;;;;1.75;1.15;;;13.80;99.90;;;;;;5067802;28;20040;-68
2023/10/30 00:03:41;;;;;;;2.15;1.20;;;13.80;99.90;;;;;;5068880;28;20075;-68
2023/10/30 00:06:27;;;;;;;2.28;0.98;;;13.80;99.90;;;;;;5069581;28;20059;-69
2023/10/30 00:09:15;;;;;;;1.42;0.95;;;13.80;99.90;;;;;;5055548;28;20047;-69
2023/10/30 00:12:01;;;;;;;1.35;0.90;;;13.80;99.90;;;;;;5068025;28;20041;-69
2023/10/30 00:14:47;;;;;;;3.03;1.08;;;13.80;99.90;;;;;;5067993;28;20282;-70
2023/10/30 00:17:33;;;;;;;2.22;1.10;;;13.90;99.90;;;;;;5067676;28;20055;-69
2023/10/30 00:20:19;;;;;;;1.42;0.85;;;13.90;99.90;;;;;;5068097;28;20047;-69
2023/10/30 00:23:05;;;;;;;1.25;0.90;;;13.90;99.90;;;;;;5068677;28;20044;-70
2023/10/30 00:25:53;;;;;;;2.30;1.05;;;13.90;99.90;;;;;;5052550;28;20398;-70
2023/10/30 00:28:38;;;;;;;2.28;0.90;;;13.90;99.90;;;;;;5053220;28;20543;-70
2023/10/30 00:31:26;;;;;;;1.48;1.10;;;13.90;99.90;;;;;;5062400;28;20090;-69
2023/10/30 00:34:12;;;;;;;3.47;0.80;;;13.90;99.90;;;;;;5067705;28;20041;-70
2023/10/30 00:36:58;;;;;;;1.20;0.80;;;14.00;99.90;;;;;;5051304;28;20460;-69
2023/10/30 00:39:44;;;;;;;1.08;0.88;;;14.00;99.90;;;;;;5066968;28;20045;-69
2023/10/30 00:42:30;;;;;;;2.30;0.50;;;14.00;99.90;;;;;;5050978;28;20144;-68
2023/10/30 00:45:16;;;;;;;6.45;1.27;;;14.00;99.90;;;;;;5051163;28;20072;-68
2023/10/30 00:48:03;;;;;;;2.08;0.98;;;14.00;99.90;;;;;;5050603;28;20044;-68
2023/10/30 00:50:49;;;;;;;2.08;1.10;;;14.00;99.90;;;;;;5057698;28;20045;-69
2023/10/30 00:53:34;;;;;;;1.83;0.85;;;14.00;99.90;;;;;;5060892;28;20124;-69
2023/10/30 00:56:20;;;;;;;0.95;0.80;;;14.00;99.90;;;;;;5071134;28;20127;-69
2023/10/30 00:59:07;;;;;;;1.35;0.75;;;14.00;99.90;;;;;;5070642;28;20040;-69
2023/10/30 01:01:53;;;;;;;4.38;1.10;;;13.90;99.90;;;;;;5071011;28;20044;-69
2023/10/30 01:04:39;;;;;;;1.38;0.85;;;13.90;99.90;;;;;;5072154;28;20414;-70
2023/10/30 01:07:24;;;;;;;1.95;0.98;;;13.90;99.90;;;;;;5070759;28;20123;-69
2023/10/30 01:10:10;;;;;;;3.70;1.23;;;13.90;99.90;;;;;;5051773;28;20041;-69
2023/10/30 01:12:57;;;;;;;2.90;1.40;;;13.90;99.90;;;;;;5052369;28;20047;-68
2023/10/30 01:15:42;;;;;;;2.90;1.10;;;13.90;99.90;;;;;;5052288;28;20292;-69
2023/10/30 01:18:29;;;;;;;1.70;1.08;;;13.90;99.90;;;;;;5054120;28;20602;-69
2023/10/30 01:21:15;;;;;;;1.65;0.90;;;13.90;99.90;;;;;;5066389;28;20045;-69
2023/10/30 01:24:01;;;;;;;1.50;0.95;;;13.90;99.90;;;;;;5070091;28;20106;-69
2023/10/30 01:26:46;;;;;;;1.08;0.88;;;13.90;99.90;;;;;;5070189;28;20063;-69
2023/10/30 01:29:32;;;;;;;1.05;0.80;;;13.90;99.90;;;;;;5069935;28;20036;-69
2023/10/30 01:32:18;;;;;;;3.78;0.82;;;13.90;99.90;;;;;;5051477;28;20472;-69
2023/10/30 01:35:04;;;;;;;3.47;0.90;;;13.90;99.90;;;;;;5050962;28;20120;-69
2023/10/30 01:37:51;;;;;;;2.13;1.10;;;13.90;99.90;;;;;;5057745;28;20145;-68
2023/10/30 01:40:37;;;;;;;0.93;0.63;;;13.90;99.90;;;;;;5070073;28;20048;-68
2023/10/30 01:43:30;;;;;;;1.15;0.88;;;13.90;99.90;;;;;;5070082;28;20068;-68
2023/10/30 01:46:16;;;;;;;0.65;0.65;;;13.90;99.90;;;;;;5069187;28;20424;-69
2023/10/30 01:49:02;;;;;;;4.03;1.30;;;13.90;99.90;;;;;;5051755;28;20041;-68
2023/10/30 01:51:48;;;;;;;2.20;1.10;;;13.90;99.90;;;;;;5052762;28;20463;-68
2023/10/30 01:54:34;;;;;;;1.02;0.60;;;14.00;99.90;;;;;;5052280;28;20033;-69
2023/10/30 01:57:22;;;;;;;2.58;0.70;;;14.00;99.90;;;;;;5051652;28;20056;-69
2023/10/30 02:00:09;;;;;;;2.70;0.88;;;14.00;99.90;;;;;;5051008;28;20087;-69
2023/10/30 02:02:56;;;;;;;7.20;2.00;;;13.90;99.90;;;;;;5048651;28;20045;-67
2023/10/30 02:05:42;;;;;;;3.45;0.70;;;14.00;99.90;;;;;;5051523;28;20048;-67
2023/10/30 02:08:28;;;;;;;1.30;0.98;;;14.00;99.90;;;;;;5066738;28;20084;-68
2023/10/30 02:11:14;;;;;;;2.58;0.90;;;14.00;99.90;;;;;;5069817;28;20050;-67
2023/10/30 02:14:00;;;;;;;1.38;0.70;;;14.00;99.90;;;;;;5069455;28;20040;-68
2023/10/30 02:16:46;;;;;;;1.08;0.77;;;14.00;99.90;;;;;;5062019;28;20052;-67
2023/10/30 02:19:32;;;;;;;3.17;1.00;;;14.00;99.90;;;;;;5050992;28;20418;-68
2023/10/30 02:22:18;;;;;;;3.05;1.48;;;13.90;99.90;;;;;;5053576;28;20041;-68
2023/10/30 02:25:05;;;;;;;2.85;1.30;;;14.00;99.90;;;;;;5049947;28;20367;-68
2023/10/30 02:27:52;;;;;;;1.15;0.73;;;14.00;99.90;;;;;;5049992;28;20076;-69
2023/10/30 02:30:38;;;;;;;3.03;1.25;;;14.00;99.90;;;;;;5060559;28;20486;-68
2023/10/30 02:33:25;;;;;;;2.58;1.00;;;14.00;99.90;;;;;;5067264;28;20505;-69
2023/10/30 02:36:11;;;;;;;1.25;0.70;;;14.00;99.90;;;;;;5068973;28;20053;-69
2023/10/30 02:38:57;;;;;;;1.95;0.80;;;14.00;99.90;;;;;;5068917;28;20146;-69
2023/10/30 02:41:43;;;;;;;1.17;0.80;;;14.00;99.90;;;;;;5068885;28;20119;-69
2023/10/30 02:44:29;;;;;;;2.00;0.93;;;14.00;99.90;;;;;;5067837;28;20040;-69
2023/10/30 02:47:15;;;;;;;1.95;0.82;;;14.00;99.90;;;;;;5068611;28;20598;-69
2023/10/30 02:50:02;;;;;;;1.20;0.77;;;14.00;99.90;;;;;;5069028;28;20131;-69
2023/10/30 02:52:49;;;;;;;1.48;1.10;;;14.00;99.90;;;;;;5070147;28;20044;-69
2023/10/30 02:55:35;;;;;;;1.50;0.80;;;14.00;99.90;;;;;;5070439;28;20051;-69
2023/10/30 02:58:21;;;;;;;2.25;0.90;;;14.00;99.90;;;;;;5068380;28;20059;-69
2023/10/30 03:01:07;;;;;;;1.45;0.70;;;14.00;99.90;;;;;;5068711;28;20044;-69
2023/10/30 03:03:53;;;;;;;1.52;0.90;;;14.00;99.90;;;;;;5069390;28;20044;-69
2023/10/30 03:06:39;;;;;;;2.08;0.80;;;14.00;99.90;;;;;;5068364;28;20105;-69
2023/10/30 03:09:26;;;;;;;0.85;0.77;;;14.00;99.90;;;;;;5058446;28;20068;-69
2023/10/30 03:12:12;;;;;;;3.75;0.95;;;14.00;99.90;;;;;;5052904;28;20158;-69
2023/10/30 03:14:58;;;;;;;1.48;0.80;;;14.00;99.90;;;;;;5068315;28;20043;-69
2023/10/30 03:17:44;;;;;;;0.77;0.70;;;14.00;99.90;;;;;;5085997;28;20050;-69
2023/10/30 03:20:30;;;;;;;2.22;0.73;;;14.00;99.90;;;;;;5087687;28;20036;-69
2023/10/30 03:23:16;;;;;;;2.53;1.10;;;14.00;99.90;;;;;;5076045;28;20044;-69
2023/10/30 03:26:02;;;;;;;3.08;0.85;;;14.00;99.90;;;;;;5049702;28;20069;-69
2023/10/30 03:28:48;;;;;;;2.58;1.23;;;14.00;99.90;;;;;;5050610;28;20045;-69
2023/10/30 03:31:34;;;;;;;2.30;1.17;;;14.00;99.90;;;;;;5066347;28;20041;-69
2023/10/30 03:34:21;;;;;;;3.25;1.10;;;14.00;99.90;;;;;;5069386;28;20477;-69
2023/10/30 03:37:08;;;;;;;1.90;1.00;;;14.00;99.90;;;;;;5067075;28;20067;-69
2023/10/30 03:39:54;;;;;;;3.15;1.10;;;14.00;99.90;;;;;;5050086;28;20572;-69
2023/10/30 03:42:40;;;;;;;1.52;1.10;;;14.00;99.90;;;;;;5047455;28;20037;-68
2023/10/30 03:45:26;;;;;;;2.15;1.10;;;14.00;99.90;;;;;;5068510;28;20044;-68
2023/10/30 03:48:12;;;;;;;2.20;0.98;;;14.00;99.90;;;;;;5068511;28;20072;-74
2023/10/30 03:50:58;;;;;;;1.38;0.85;;;14.00;99.90;;;;;;5068156;28;20093;-70
2023/10/30 03:53:44;;;;;;;2.60;1.27;;;14.00;99.90;;;;;;5066212;28;20036;-71
2023/10/30 03:56:30;;;;;;;1.58;0.80;;;14.00;99.90;;;;;;5068247;28;20051;-71
2023/10/30 03:59:16;;;;;;;2.38;1.00;;;14.00;99.90;;;;;;5071844;28;20506;-71
2023/10/30 04:02:02;;;;;;;3.13;0.80;;;14.00;99.90;;;;;;5057701;28;20078;-70
2023/10/30 04:04:48;;;;;;;1.80;1.08;;;14.00;99.90;;;;;;5064841;28;20048;-70
2023/10/30 04:07:34;;;;;;;2.80;0.82;;;13.90;99.90;;;;;;5073720;28;20032;-70
2023/10/30 04:10:21;;;;;;;3.35;1.20;;;13.90;99.90;;;;;;5072015;28;20125;-71
2023/10/30 04:13:07;;;;;;;4.32;1.40;;;14.00;99.90;;;;;;5071351;28;20510;-70
2023/10/30 04:15:53;;;;;;;0.98;0.77;;;13.90;99.90;;;;;;5071480;28;20028;-71
2023/10/30 04:18:39;;;;;;;3.70;1.48;;;13.90;99.90;;;;;;5052650;28;20056;-70
2023/10/30 04:21:25;;;;;;;4.15;1.00;;;13.90;99.90;;;;;;5069561;28;20094;-71
2023/10/30 04:24:11;;;;;;;4.35;1.25;;;13.90;99.90;;;;;;5073011;28;20061;-70
2023/10/30 04:26:57;;;;;;;1.98;1.20;;;13.90;99.90;;;;;;5071850;28;20138;-70
2023/10/30 04:29:43;;;;;;;1.92;0.90;;;13.90;99.90;;;;;;5070894;28;20048;-71
2023/10/30 04:32:29;;;;;;;2.67;0.90;;;13.90;99.90;;;;;;5069642;28;20036;-71
2023/10/30 04:35:15;;;;;;;2.50;1.10;;;13.90;99.90;;;;;;5073071;28;20420;-71
2023/10/30 04:38:00;;;;;;;6.07;1.10;;;13.90;99.90;;;;;;5071253;28;20452;-71
2023/10/30 04:40:46;;;;;;;1.27;0.82;;;13.90;99.90;;;;;;5071413;28;20486;-71
2023/10/30 04:43:33;;;;;;;1.45;1.00;;;13.90;99.90;;;;;;5066589;28;20049;-71
2023/10/30 04:46:19;;;;;;;1.92;0.98;;;13.90;99.90;;;;;;5071173;28;20036;-70
2023/10/30 04:49:05;;;;;;;2.70;1.02;;;13.90;99.90;;;;;;5051630;28;20036;-70
2023/10/30 04:51:51;;;;;;;3.38;1.50;;;13.90;99.90;;;;;;5050683;28;20045;-71
2023/10/30 04:54:37;;;;;;;2.30;1.20;;;13.90;99.90;;;;;;5050040;28;20041;-69
2023/10/30 04:57:23;;;;;;;2.15;1.33;;;13.90;99.90;;;;;;5053242;28;20109;-70
2023/10/30 05:00:09;;;;;;;2.22;1.10;;;13.90;99.90;;;;;;5051411;28;20095;-68
2023/10/30 05:02:55;;;;;;;2.83;1.00;;;13.90;99.90;;;;;;5062300;28;20044;-69
2023/10/30 05:05:41;;;;;;;3.83;1.20;;;13.90;99.90;;;;;;5070775;28;20028;-69
2023/10/30 05:08:27;;;;;;;2.53;1.20;;;13.90;99.90;;;;;;5070296;28;20122;-70
2023/10/30 05:11:13;;;;;;;1.85;0.95;;;13.90;99.90;;;;;;5061964;28;20040;-69
2023/10/30 05:13:59;;;;;;;2.17;1.10;;;13.80;99.90;;;;;;5069550;28;20098;-69
2023/10/30 05:16:45;;;;;;;1.73;1.05;;;13.90;99.90;;;;;;5070630;28;20033;-67
2023/10/30 05:19:31;;;;;;;1.85;1.23;;;13.90;99.90;;;;;;5063572;28;20098;-69
2023/10/30 05:22:17;;;;;;;2.22;1.30;;;13.80;99.90;;;;;;5051190;28;20106;-68
2023/10/30 05:25:03;;;;;;;1.13;0.98;;;13.80;99.90;;;;;;5055218;28;20174;-68
2023/10/30 05:27:49;;;;;;;3.88;1.17;;;13.80;99.90;;;;;;5070256;28;20522;-69
2023/10/30 05:30:35;;;;;;;3.53;1.85;;;13.80;99.90;;;;;;5069967;28;20033;-69
2023/10/30 05:33:21;;;;;;;4.35;1.30;;;13.80;99.90;;;;;;5067706;28;20037;-68
2023/10/30 05:36:07;;;;;;;3.88;1.35;;;13.80;99.90;;;;;;5069152;28;20040;-69
2023/10/30 05:38:53;;;;;;;4.90;1.50;;;13.80;99.90;;;;;;5076942;28;20064;-68
2023/10/30 05:41:39;;;;;;;5.55;1.30;;;13.80;99.90;;;;;;5054581;28;20040;-69
2023/10/30 05:44:25;;;;;;;2.75;1.20;;;13.80;99.90;;;;;;5069801;28;20105;-69
2023/10/30 05:47:12;;;;;;;3.08;1.52;;;13.80;99.90;;;;;;5068298;28;20387;-69
2023/10/30 05:49:58;;;;;;;6.00;1.88;;;13.80;99.90;;;;;;5070060;28;20555;-68
2023/10/30 05:52:45;;;;;;;2.70;1.48;;;13.80;99.90;;;;;;5070054;28;20036;-68
2023/10/30 05:55:31;;;;;;;2.65;1.30;;;13.80;99.90;;;;;;5070760;28;20041;-69
2023/10/30 05:58:17;;;;;;;4.57;1.80;;;13.80;99.90;;;;;;5069220;28;20083;-69
2023/10/30 06:01:04;;;;;;;2.83;1.45;;;13.80;99.90;;;;;;5069296;28;20060;-68
2023/10/30 06:03:50;;;;;;;3.17;1.40;;;13.80;99.90;;;;;;5070460;28;20082;-68
2023/10/30 06:06:36;;;;;;;4.35;1.67;;;13.80;99.90;;;;;;5069676;28;20044;-68
2023/10/30 06:09:22;;;;;;;2.33;1.13;;;13.80;99.90;;;;;;5069219;28;20036;-68
2023/10/30 06:12:08;;;;;;;1.90;1.25;;;13.80;99.90;;;;;;5067781;28;20896;-68
2023/10/30 06:14:54;;;;;;;3.20;1.30;;;13.80;99.90;;;;;;5050318;28;20041;-68
2023/10/30 06:17:40;;;;;;;3.38;1.45;;;13.80;99.90;;;;;;5049740;28;20118;-67
2023/10/30 06:20:27;;;;;;;2.83;1.27;;;13.80;99.90;;;;;;5050309;28;20029;-69
2023/10/30 06:23:13;;;;;;;4.93;1.67;;;13.80;99.90;;;;;;5058695;28;20502;-70
2023/10/30 06:25:59;;;;;;;3.65;1.30;;;13.80;99.90;;;;;;5069077;28;20064;-69
2023/10/30 06:28:45;;;;;;;3.22;1.48;;;13.80;99.90;;;;;;5070277;28;20041;-69
2023/10/30 06:31:31;;;;;;;7.15;1.83;;;13.80;99.90;;;;;;5069625;28;20044;-68
2023/10/30 06:34:17;;;;;;;3.17;1.52;;;13.80;99.90;;;;;;5068784;28;20509;-69
2023/10/30 06:37:03;;;;;;;5.20;1.70;;;13.80;99.90;;;;;;5068218;28;20032;-68
2023/10/30 06:39:49;;;;;;;5.15;1.50;;;13.80;99.90;;;;;;5069034;28;20036;-68
2023/10/30 06:42:35;;;;;;;9.57;1.35;;;13.90;99.90;;;;;;5068686;28;20048;-68
2023/10/30 06:45:21;;;;;;;3.53;1.65;;;13.90;99.90;;;;;;5049943;28;20537;-67
2023/10/30 06:48:07;;;;;;;2.75;1.52;;;13.90;99.90;;;;;;5048886;28;20036;-67
2023/10/30 06:50:54;;;;;;;2.22;1.10;;;14.00;99.90;;;;;;5060942;28;20129;-68
2023/10/30 06:53:40;;;;;;;1.42;0.93;;;14.00;99.90;;;;;;5068036;28;20050;-67
2023/10/30 06:56:27;;;;;;;2.47;1.15;;;14.00;99.90;;;;;;5068552;28;20036;-69
2023/10/30 06:59:14;;;;;;;4.93;1.63;;;14.10;99.90;;;;;;5049274;28;20056;-69
2023/10/30 07:02:00;;;;;;;2.83;1.33;;;14.10;99.90;;;;;;5053256;28;20132;-73
2023/10/30 07:04:46;;;;;;;2.58;1.48;;;14.20;99.90;;;;;;5050648;28;20040;-72
2023/10/30 07:07:32;;;;;;;5.60;2.20;;;14.20;99.90;;;;;;5048598;28;20033;-70
2023/10/30 07:10:18;;;;;;;2.28;1.25;;;14.30;99.90;;;;;;5057119;28;20040;-69
2023/10/30 07:13:04;;;;;;;3.15;1.25;;;14.30;99.90;;;;;;5056192;28;20044;-68
2023/10/30 07:15:50;;;;;;;4.95;1.13;;;14.40;99.90;;;;;;5048609;28;20087;-69
2023/10/30 07:18:36;;;;;;;2.75;1.55;;;14.50;99.90;;;;;;5048120;28;20052;-67
2023/10/30 07:21:22;;;;;;;5.28;1.73;;;14.50;99.90;;;;;;5049784;28;20051;-69
2023/10/30 07:24:08;;;;;;;3.03;1.05;;;14.60;99.90;;;;;;5068309;28;20060;-68
2023/10/30 07:26:57;;;;;;;4.80;1.65;;;14.70;99.90;;;;;;5067332;28;20602;-67
2023/10/30 07:29:44;;;;;;;3.38;1.40;;;14.80;99.90;;;;;;5068235;28;20040;-68
2023/10/30 07:32:30;;;;;;;3.33;1.67;;;14.80;99.90;;;;;;5053524;28;20045;-68
2023/10/30 07:35:16;;;;;;;3.20;1.23;;;14.90;99.90;;;;;;5050335;28;20063;-70
2023/10/30 07:38:02;;;;;;;2.95;1.30;;;15.00;99.90;;;;;;5063921;28;20423;-67
2023/10/30 07:40:48;;;;;;;2.70;1.40;;;15.10;99.90;;;;;;5065029;28;20040;-67
2023/10/30 07:43:34;;;;;;;4.70;1.30;;;15.20;99.90;;;;;;5057294;28;20115;-68
2023/10/30 07:46:20;;;;;;;4.93;1.75;;;15.20;99.90;;;;;;5056565;28;20040;-67
2023/10/30 07:49:07;;;;;;;2.67;1.30;;;15.20;99.90;;;;;;5058663;28;20048;-67
2023/10/30 07:51:53;;;;;;;2.53;1.38;;;15.30;99.90;;;;;;5055617;28;20048;-69
2023/10/30 07:54:39;;;;;;;11.00;1.98;;;15.40;99.90;;;;;;5058250;28;20043;-68
2023/10/30 07:57:25;;;;;;;3.35;1.58;;;15.50;99.90;;;;;;5061453;28;20460;-68
2023/10/30 08:00:12;;;;;;;6.53;2.65;;;15.50;99.90;;;;;;5062475;28;20501;-68
2023/10/30 08:02:58;;;;;;;5.70;1.77;;;15.60;99.90;;;;;;5059948;28;20044;-68
2023/10/30 08:05:44;;;;;;;5.07;1.60;;;15.70;99.90;;;;;;5058875;28;20045;-67
2023/10/30 08:08:30;;;;;;;3.42;1.20;;;15.80;99.90;;;;;;5056679;28;20136;-68
2023/10/30 08:11:15;;;;;;;3.08;1.95;;;15.80;99.90;;;;;;5058842;28;20119;-68
2023/10/30 08:14:01;;;;;;;2.20;1.20;;;15.80;99.90;;;;;;5062090;28;20080;-68
2023/10/30 08:16:47;;;;;;;4.70;1.63;;;15.90;99.90;;;;;;5061532;28;20053;-69
2023/10/30 08:19:33;;;;;;;3.78;1.38;;;15.90;99.90;;;;;;5064050;28;20255;-69
2023/10/30 08:22:19;;;;;;;8.10;1.38;;;16.00;99.90;;;;;;5048585;28;20041;-69
2023/10/30 08:25:05;;;;;;;6.22;1.52;;;16.00;99.90;;;;;;5064793;28;20106;-68
2023/10/30 08:27:51;;;;;;;4.07;1.67;;;16.00;99.90;;;;;;5061770;28;20537;-68
2023/10/30 08:30:37;;;;;;;3.95;1.73;;;16.10;99.90;;;;;;5062278;28;20428;-69
2023/10/30 08:33:23;;;;;;;2.28;1.20;;;16.10;99.90;;;;;;5060520;28;20136;-69
2023/10/30 08:36:09;;;;;;;2.17;1.67;;;16.10;99.90;;;;;;5053779;28;20095;-67
2023/10/30 08:38:55;;;;;;;4.15;1.45;;;16.10;99.90;;;;;;5056417;28;20518;-68
2023/10/30 08:41:41;;;;;;;3.08;1.42;;;16.10;99.90;;;;;;5066790;28;20090;-67
2023/10/30 08:44:27;;;;;;;2.90;1.42;;;16.20;99.90;;;;;;5062703;28;20045;-68
2023/10/30 08:47:14;;;;;;;2.83;1.40;;;16.20;99.90;;;;;;5062524;28;20518;-67
2023/10/30 08:50:00;;;;;;;5.30;2.38;;;16.20;99.90;;;;;;5063225;28;20045;-66
2023/10/30 08:52:46;;;;;;;3.83;1.50;;;16.30;99.90;;;;;;5055501;28;20071;-67
2023/10/30 08:55:32;;;;;;;4.57;1.58;;;16.30;99.90;;;;;;5057449;28;20032;-67
2023/10/30 08:58:18;;;;;;;2.95;1.40;;;16.30;99.90;;;;;;5058991;28;20151;-67
2023/10/30 09:01:04;;;;;;;5.35;1.70;;;16.40;99.90;;;;;;5062979;28;20539;-67
2023/10/30 09:03:50;;;;;;;4.10;1.80;;;16.40;99.90;;;;;;5055563;28;20052;-67
2023/10/30 09:06:36;;;;;;;3.42;1.80;;;16.50;99.90;;;;;;5063797;28;20074;-67
2023/10/30 09:09:22;;;;;;;5.65;2.05;;;16.50;99.90;;;;;;5063410;28;20421;-68
2023/10/30 09:12:08;;;;;;;2.70;1.67;;;16.60;99.90;;;;;;5058010;28;20110;-69
2023/10/30 09:14:54;;;;;;;3.67;1.80;;;16.70;99.90;;;;;;5058705;28;20048;-69
2023/10/30 09:17:40;;;;;;;4.30;1.30;;;16.70;99.90;;;;;;5058570;28;20140;-68
2023/10/30 09:20:26;;;;;;;3.40;1.50;;;16.80;99.90;;;;;;5062153;28;20549;-68
2023/10/30 09:23:12;;;;;;;4.78;1.73;;;16.90;99.90;;;;;;5061598;28;20426;-69
2023/10/30 09:25:58;;;;;;;3.45;1.67;;;16.90;99.90;;;;;;5056818;28;20514;-68
2023/10/30 09:28:44;;;;;;;2.80;1.35;;;17.00;99.90;;;;;;5059159;28;20059;-69
2023/10/30 09:31:31;;;;;;;3.45;1.65;;;17.00;99.90;;;;;;5054610;28;20048;-65
2023/10/30 09:34:17;;;;;;;2.10;1.20;;;17.10;99.90;;;;;;5062279;28;20135;-69
2023/10/30 09:37:03;;;;;;;2.50;1.15;;;17.10;99.90;;;;;;5062513;28;20036;-68
2023/10/30 09:39:50;;;;;;;4.10;1.35;;;17.10;99.90;;;;;;5055637;28;20678;-66
2023/10/30 09:42:36;;;;;;;5.38;1.33;;;17.20;99.90;;;;;;5055062;28;20044;-68
2023/10/30 09:45:24;;;;;;;3.95;1.38;;;17.20;99.90;;;;;;5068018;28;20032;-67
2023/10/30 09:48:10;;;;;;;2.22;1.33;;;17.10;99.90;;;;;;5056605;28;20037;-68
2023/10/30 09:50:58;;;;;;;4.30;1.88;;;17.20;99.90;;;;;;5051631;28;20521;-68
2023/10/30 09:53:46;;;;;;;2.75;1.40;;;17.20;99.90;;;;;;5052601;28;20037;-68
2023/10/30 09:56:34;;;;;;;7.13;2.05;;;17.30;99.90;;;;;;5052188;28;20052;-69
2023/10/30 09:59:21;;;;;;;3.13;1.40;;;17.30;99.90;;;;;;5049216;28;20060;-69
2023/10/30 10:02:08;;;;;;;4.97;2.10;;;17.20;99.90;;;;;;5049993;28;20048;-68
2023/10/30 10:04:56;;;;;;;5.38;2.08;;;17.30;99.90;;;;;;5050854;28;20431;-68
2023/10/30 10:07:42;;;;;;;4.78;1.50;;;17.30;99.90;;;;;;5070062;28;20041;-68
2023/10/30 10:10:28;;;;;;;4.45;1.85;;;17.40;99.90;;;;;;5056454;28;20059;-68
2023/10/30 10:13:15;;;;;;;4.78;1.70;;;17.40;99.90;;;;;;5051526;28;20128;-67
2023/10/30 10:16:01;;;;;;;4.75;1.70;;;17.40;99.90;;;;;;5052987;28;20055;-70
2023/10/30 10:18:47;;;;;;;4.47;1.85;;;17.40;99.90;;;;;;5048638;28;20064;-69
2023/10/30 10:21:48;;;;;;;3.15;1.65;;;17.60;99.90;;;;;;5055827;28;20040;-69
2023/10/30 10:24:37;;;;;;;4.15;1.58;;;17.60;99.90;;;;;;5069908;28;20060;-71
2023/10/30 10:27:24;;;;;;;4.60;1.63;;;17.60;99.90;;;;;;5059532;28;20041;-70
2023/10/30 10:30:10;;;;;;;2.67;1.40;;;17.60;99.90;;;;;;5050502;28;20431;-70
2023/10/30 10:32:57;;;;;;;3.97;1.58;;;17.70;99.90;;;;;;5054241;28;20053;-70
2023/10/30 10:35:43;;;;;;;4.63;1.23;;;17.70;99.90;;;;;;5068770;28;20032;-72
2023/10/30 10:38:30;;;;;;;3.53;1.83;;;17.70;99.90;;;;;;5058442;28;20049;-72
2023/10/30 10:41:16;;;;;;;4.15;1.23;;;17.70;99.90;;;;;;5048988;28;20084;-71
2023/10/30 10:44:05;;;;;;;4.82;1.70;;;17.70;99.90;;;;;;5050841;28;20069;-72
2023/10/30 10:46:55;;;;;;;3.00;1.40;;;17.70;99.90;;;;;;5053182;28;20036;-71
2023/10/30 10:49:41;;;;;;;10.40;1.75;;;17.70;99.90;;;;;;5052536;28;20048;-77
2023/10/30 10:52:29;;;;;;;4.68;1.48;;;17.70;99.90;;;;;;5068487;28;20044;-69
2023/10/30 10:55:23;;;;;;;3.55;1.40;;;17.70;99.90;;;;;;5069876;28;20071;-69
2023/10/30 10:58:20;;;;;;;2.95;1.63;;;17.70;99.90;;;;;;5070420;28;20509;-70
2023/10/30 11:01:08;;;;;;;4.53;1.55;;;17.70;99.90;;;;;;5062847;28;20061;-70
2023/10/30 11:03:54;;;;;;;7.03;1.60;;;17.70;99.90;;;;;;5049832;28;20124;-70
2023/10/30 11:06:46;;;;;;;4.10;1.45;;;17.70;99.90;;;;;;5049258;28;20049;-71
2023/10/30 11:09:48;;;;;;;6.15;1.60;;;17.70;99.90;;;;;;5050126;28;20033;-70
2023/10/30 11:12:52;;;;;;;7.30;1.90;;;17.60;99.90;;;;;;5055408;28;20036;-70
2023/10/30 11:15:51;;;;;;;3.15;1.30;;;17.50;99.90;;;;;;5057401;28;20131;-70
2023/10/30 11:18:38;;;;;;;5.07;1.67;;;17.50;99.90;;;;;;5052867;28;20055;-70
2023/10/30 11:21:26;;;;;;;3.88;1.55;;;17.50;99.90;;;;;;5051879;28;20399;-68
2023/10/30 11:24:33;;;;;;;4.30;2.13;;;17.40;99.90;;;;;;5050310;28;20049;-71
2023/10/30 11:27:25;;;;;;;4.70;1.73;;;17.30;99.90;;;;;;5062558;28;20110;-69
2023/10/30 11:30:11;;;;;;;4.28;1.60;;;17.30;99.90;;;;;;5069019;28;20120;-69
2023/10/30 11:32:58;;;;;;;5.03;1.50;;;17.20;99.90;;;;;;5066319;28;20036;-69
2023/10/30 11:35:45;;;;;;;3.75;1.30;;;17.20;99.90;;;;;;5048279;28;20546;-69
2023/10/30 11:38:58;;;;;;;9.88;2.33;;;17.10;99.90;;;;;;5050109;28;20051;-69
2023/10/30 11:41:49;;;;;;;5.63;1.88;;;17.10;99.90;;;;;;5049465;28;20033;-69
2023/10/30 11:44:36;;;;;;;4.97;1.52;;;17.00;99.90;;;;;;5049969;28;20053;-69
2023/10/30 11:47:23;;;;;;;5.65;2.17;;;17.10;99.90;;;;;;5053579;28;20040;-68
2023/10/30 11:50:09;;;;;;;4.85;1.40;;;17.10;99.90;;;;;;5069179;28;20076;-69
2023/10/30 11:52:58;;;;;;;5.55;1.92;;;17.10;99.90;;;;;;5069328;28;20569;-69
2023/10/30 11:55:47;;;;;;;5.70;1.75;;;17.10;99.90;;;;;;5053289;28;20053;-70
2023/10/30 11:58:33;;;;;;;4.68;1.55;;;17.10;99.90;;;;;;5047748;28;20048;-69
2023/10/30 12:01:21;;;;;;;4.72;1.60;;;17.00;99.90;;;;;;5047476;28;20102;-69
2023/10/30 12:04:07;;;;;;;5.07;1.55;;;17.00;99.90;;;;;;5048999;28;20044;-69
2023/10/30 12:06:53;;;;;;;3.35;1.50;;;17.00;99.90;;;;;;5048862;28;20036;-69
2023/10/30 12:09:39;;;;;;;4.28;1.70;;;16.80;99.90;;;;;;5049359;28;20406;-68
2023/10/30 12:12:25;;;;;;;3.97;1.40;;;16.80;99.90;;;;;;5047521;28;20056;-68
2023/10/30 12:15:12;;;;;;;6.07;1.55;;;16.80;99.90;;;;;;5068098;28;20044;-69
2023/10/30 12:17:58;;;;;;;2.83;1.52;;;16.80;99.90;;;;;;5067411;28;20056;-69
2023/10/30 12:20:45;;;;;;;5.32;2.08;;;16.70;99.90;;;;;;5057144;28;20555;-69
2023/10/30 12:23:31;;;;;;;5.88;2.05;;;16.60;99.90;;;;;;5059827;28;20529;-68
2023/10/30 12:26:17;;;;;;;7.43;1.65;;;16.60;99.90;;;;;;5067943;28;20064;-69
2023/10/30 12:29:03;;;;;;;4.43;2.13;;;16.60;99.90;;;;;;5053428;28;20564;-69
2023/10/30 12:32:04;;;;;;;5.82;1.92;;;16.60;99.90;;;;;;5052980;28;20029;-69
2023/10/30 12:34:50;;;;;;;4.13;1.70;;;16.60;99.90;;;;;;5052777;28;20052;-69
2023/10/30 12:37:40;;;;;;;4.88;2.70;;;16.60;99.90;;;;;;5052009;28;20040;-68
2023/10/30 12:40:28;;;;;;;6.20;2.58;;;16.60;99.90;;;;;;5060446;28;20120;-69
2023/10/30 12:43:14;;;;;;;7.13;2.38;;;16.60;99.90;;;;;;5054613;28;20091;-69
2023/10/30 12:46:00;;;;;;;4.47;2.50;;;16.60;99.90;;;;;;5057807;28;20040;-69
2023/10/30 12:48:45;;;;;;;8.00;3.60;;;16.70;99.90;;;;;;5060738;28;20037;-68
2023/10/30 12:51:34;;;;;;;6.82;2.58;;;16.70;99.90;;;;;;5052763;28;20036;-69
2023/10/30 12:54:20;;;;;;;4.88;2.53;;;16.70;99.90;;;;;;5052459;28;20041;-69
2023/10/30 12:57:07;;;;;;;11.10;2.83;;;16.80;99.90;;;;;;5053952;28;20043;-69
2023/10/30 12:59:54;;;;;;;4.78;2.33;;;16.90;99.90;;;;;;5055211;28;20052;-69
2023/10/30 13:02:40;;;;;;;5.38;2.28;;;16.90;99.90;;;;;;5056960;28;20047;-68
2023/10/30 13:05:25;;;;;;;8.02;1.95;;;17.00;99.90;;;;;;5057326;28;20598;-69
2023/10/30 13:08:11;;;;;;;5.50;1.50;;;17.10;99.90;;;;;;5053578;28;20482;-69
2023/10/30 13:10:57;;;;;;;4.78;1.85;;;17.10;99.90;;;;;;5053267;28;20033;-69
2023/10/30 13:13:43;;;;;;;5.43;2.28;;;17.20;99.90;;;;;;5057095;28;20044;-69
2023/10/30 13:16:29;;;;;;;5.40;1.90;;;17.20;99.90;;;;;;5060050;28;20040;-69
2023/10/30 13:19:15;;;;;;;4.18;1.73;;;17.20;99.90;;;;;;5055224;28;20084;-69
2023/10/30 13:22:02;;;;;;;6.13;2.67;;;17.20;99.90;;;;;;5057749;28;20056;-69
2023/10/30 13:24:49;;;;;;;8.10;2.60;;;17.20;99.90;;;;;;5054622;28;20513;-69
2023/10/30 13:27:34;;;;;;;6.03;2.30;;;17.20;99.90;;;;;;5053019;28;20055;-67
2023/10/30 13:30:20;;;;;;;5.43;2.40;;;17.10;99.90;;;;;;5052243;28;20387;-67
2023/10/30 13:33:06;;;;;;;5.70;2.13;;;17.10;99.90;;;;;;5056045;28;20495;-67
2023/10/30 13:35:52;;;;;;;7.88;2.35;;;17.10;99.90;;;;;;5054669;28;20478;-67
2023/10/30 13:38:39;;;;;;;5.10;2.40;;;17.10;99.90;;;;;;5052743;28;20749;-68
2023/10/30 13:41:24;;;;;;;10.02;2.15;;;17.10;99.90;;;;;;5052699;28;20495;-67
2023/10/30 13:44:10;;;;;;;6.13;1.85;;;17.10;99.90;;;;;;5052799;28;20094;-67
2023/10/30 13:46:56;;;;;;;3.40;1.90;;;17.10;99.90;;;;;;5051952;28;20051;-67
2023/10/30 13:49:42;;;;;;;5.93;2.10;;;17.10;99.90;;;;;;5051492;28;20041;-67
2023/10/30 13:52:28;;;;;;;4.72;2.22;;;17.10;99.90;;;;;;5051842;28;20064;-68
2023/10/30 13:55:14;;;;;;;3.03;1.50;;;17.20;99.90;;;;;;5057236;28;20039;-69
2023/10/30 13:58:00;;;;;;;4.15;1.85;;;17.20;99.90;;;;;;5056419;28;20498;-68
2023/10/30 14:00:46;;;;;;;4.10;2.25;;;17.20;99.90;;;;;;5051533;28;20489;-69
2023/10/30 14:03:32;;;;;;;4.93;1.60;;;17.10;99.90;;;;;;5060910;28;20041;-70
2023/10/30 14:06:18;;;;;;;3.03;1.60;;;17.20;99.90;;;;;;5068645;28;20534;-68
2023/10/30 14:09:04;;;;;;;4.47;1.70;;;17.10;99.90;;;;;;5050775;28;20444;-69
2023/10/30 14:11:50;;;;;;;3.25;1.52;;;17.00;99.90;;;;;;5061648;28;20110;-69
2023/10/30 14:14:36;;;;;;;5.88;1.70;;;17.00;99.90;;;;;;5050195;28;20132;-68
2023/10/30 14:17:22;;;;;;;2.47;1.33;;;17.00;99.90;;;;;;5052692;28;20048;-69
2023/10/30 14:20:09;;;;;;;6.80;1.45;;;17.00;99.90;;;;;;5050948;28;20048;-69
2023/10/30 14:22:55;;;;;;;5.38;1.73;;;17.00;99.90;;;;;;5061357;28;20044;-69
2023/10/30 14:25:41;;;;;;;5.05;1.70;;;17.00;99.90;;;;;;5057522;28;20036;-68